الصفحة الرئيسية
METAR-TAF:

METAR-TAF

مطار :

Phetchabun, تايلاند

دائرة عرض: 16-40-33N, خط طول: 101-11-42E, ارتفاع: 137 متر

مراقبة الطقس الحالي

تاريخ ووقت الإصدار 11ساعات و 12 دقيقة قبل الساعة 11:00UTC
رياح هادئة
درجة الحرارة 33°درجة مئوية
الرطوبة 59%
ضغط 1001 hPa
الرؤية 10 كم أو أكثر
غيوم متفرقة على ارتفاع 2500 قدم
غيوم متفرقة على ارتفاع 10000 قدم

METAR: VTPB 021100Z 00000KT 9999 SCT025 SCT100 33/24 Q1001 NOSIG

زمن: 05:12 (22:12 UTC)

توقعات

تاريخ ووقت الإصدار 5ساعات و 12 دقيقة قبل الساعة 17:00UTC
التوقعات صالحة من02 الساعة 18 UTC إلى 03 الساعة 18 UTC
ريح 5 عقدة من الجنوب
الرؤية 10 كم أو أكثر
غيوم متفرقة على ارتفاع 2500 قدم
مؤقت
من 03 الساعة 07 UTC إلى 03 الساعة 13 UTC
ريح 15 عقدة من الجنوب/الجنوب الغربي تتزايد حتى 30 عقدة
الرؤية: 4000 متر
غيوم قليلة على ارتفاع 1800 قدم, مزنة ركامية.
غيوم مفككة على ارتفاع 2500 قدم
عاصفة رعدية, مطر

TAF: VTPB 021700Z 0218/0318 18005KT 9999 SCT025 TEMPO 0307/0313 20015G30KT 4000 TSRA FEW018CB BKN025

أرصاد الطقس والتوقعات من أكثر من 4000 مطار (تقارير الطقس للمطار METAR والتنبؤ بالطقس بالمطارTAF).

المحطات المتاحة هي النقط الصفراء والحمراء على الخريطة.

حرك المؤشر فوق النقطة لمعرفة اسم المحطة.

ثم انقر لمعرفة أرصاد وتوقعات الطقس.

لتغيير الخارطة: اضغط على الأزرار الخضراء مع رمز الصليب الأسود للتكبير. على الزر الأخضر مع شرطة للتصغير، أو على الأسهم الخضراء للخرائط المجاورة.


METAR-TAF: